sensor_id;sensor_type;location;lat;lon;timestamp;P1;durP1;ratioP1;P2;durP2;ratioP2
34836;SDS011;21053;50.848;4.652;2022-07-25T00:00:47;10.52;;;5.03;;
34836;SDS011;21053;50.848;4.652;2022-07-25T00:03:16;6.40;;;4.72;;
34836;SDS011;21053;50.848;4.652;2022-07-25T00:05:45;9.13;;;5.07;;
34836;SDS011;21053;50.848;4.652;2022-07-25T00:08:10;8.82;;;4.80;;
34836;SDS011;21053;50.848;4.652;2022-07-25T00:10:39;15.38;;;4.90;;
34836;SDS011;21053;50.848;4.652;2022-07-25T00:13:08;8.15;;;5.03;;
34836;SDS011;21053;50.848;4.652;2022-07-25T00:15:36;10.50;;;4.63;;
34836;SDS011;21053;50.848;4.652;2022-07-25T00:18:02;9.52;;;4.38;;
34836;SDS011;21053;50.848;4.652;2022-07-25T00:20:27;8.55;;;4.93;;
34836;SDS011;21053;50.848;4.652;2022-07-25T00:22:55;7.55;;;4.75;;
34836;SDS011;21053;50.848;4.652;2022-07-25T00:25:21;7.22;;;4.60;;
34836;SDS011;21053;50.848;4.652;2022-07-25T00:27:47;8.30;;;4.75;;
34836;SDS011;21053;50.848;4.652;2022-07-25T00:30:16;8.98;;;5.15;;
34836;SDS011;21053;50.848;4.652;2022-07-25T00:32:44;6.63;;;4.65;;
34836;SDS011;21053;50.848;4.652;2022-07-25T00:35:10;9.98;;;5.13;;
34836;SDS011;21053;50.848;4.652;2022-07-25T00:37:41;7.38;;;4.85;;
34836;SDS011;21053;50.848;4.652;2022-07-25T00:40:07;9.45;;;5.05;;
34836;SDS011;21053;50.848;4.652;2022-07-25T00:42:35;9.48;;;5.57;;
34836;SDS011;21053;50.848;4.652;2022-07-25T00:45:01;12.13;;;5.43;;
34836;SDS011;21053;50.848;4.652;2022-07-25T00:47:29;9.25;;;5.28;;
34836;SDS011;21053;50.848;4.652;2022-07-25T00:52:26;9.80;;;4.57;;
34836;SDS011;21053;50.848;4.652;2022-07-25T00:57:24;14.50;;;5.20;;
34836;SDS011;21053;50.848;4.652;2022-07-25T00:59:53;10.15;;;5.35;;
34836;SDS011;21053;50.848;4.652;2022-07-25T01:02:21;16.92;;;4.93;;
34836;SDS011;21053;50.848;4.652;2022-07-25T01:04:50;7.18;;;4.72;;
34836;SDS011;21053;50.848;4.652;2022-07-25T01:07:19;16.35;;;5.93;;
34836;SDS011;21053;50.848;4.652;2022-07-25T01:09:45;10.55;;;5.30;;
34836;SDS011;21053;50.848;4.652;2022-07-25T01:12:11;9.23;;;5.45;;
34836;SDS011;21053;50.848;4.652;2022-07-25T01:14:39;10.43;;;5.40;;
34836;SDS011;21053;50.848;4.652;2022-07-25T01:17:04;8.45;;;5.28;;
34836;SDS011;21053;50.848;4.652;2022-07-25T01:19:31;8.68;;;5.03;;
34836;SDS011;21053;50.848;4.652;2022-07-25T01:21:58;10.10;;;4.93;;
34836;SDS011;21053;50.848;4.652;2022-07-25T01:24:24;7.78;;;4.55;;
34836;SDS011;21053;50.848;4.652;2022-07-25T01:29:21;8.30;;;5.20;;
34836;SDS011;21053;50.848;4.652;2022-07-25T01:31:49;9.93;;;5.30;;
34836;SDS011;21053;50.848;4.652;2022-07-25T01:34:15;11.68;;;5.13;;
34836;SDS011;21053;50.848;4.652;2022-07-25T01:36:44;8.18;;;5.22;;
34836;SDS011;21053;50.848;4.652;2022-07-25T01:39:12;9.52;;;5.82;;
34836;SDS011;21053;50.848;4.652;2022-07-25T01:41:41;12.27;;;5.35;;
34836;SDS011;21053;50.848;4.652;2022-07-25T01:44:09;8.70;;;5.53;;
34836;SDS011;21053;50.848;4.652;2022-07-25T01:46:38;10.57;;;5.32;;
34836;SDS011;21053;50.848;4.652;2022-07-25T01:49:06;11.13;;;5.50;;
34836;SDS011;21053;50.848;4.652;2022-07-25T01:51:35;10.38;;;5.38;;
34836;SDS011;21053;50.848;4.652;2022-07-25T01:54:02;11.75;;;5.30;;
34836;SDS011;21053;50.848;4.652;2022-07-25T01:56:31;11.60;;;5.22;;
34836;SDS011;21053;50.848;4.652;2022-07-25T01:58:56;12.00;;;5.80;;
34836;SDS011;21053;50.848;4.652;2022-07-25T02:08:51;7.65;;;4.85;;
34836;SDS011;21053;50.848;4.652;2022-07-25T02:11:18;8.77;;;5.28;;
34836;SDS011;21053;50.848;4.652;2022-07-25T02:13:49;9.50;;;5.53;;
34836;SDS011;21053;50.848;4.652;2022-07-25T02:16:17;10.23;;;5.15;;
34836;SDS011;21053;50.848;4.652;2022-07-25T02:18:44;10.35;;;5.00;;
34836;SDS011;21053;50.848;4.652;2022-07-25T02:21:10;11.35;;;4.32;;
34836;SDS011;21053;50.848;4.652;2022-07-25T02:23:37;15.98;;;5.57;;
34836;SDS011;21053;50.848;4.652;2022-07-25T02:26:07;11.25;;;5.35;;
34836;SDS011;21053;50.848;4.652;2022-07-25T02:28:35;10.90;;;5.10;;
34836;SDS011;21053;50.848;4.652;2022-07-25T02:31:03;12.30;;;6.25;;
34836;SDS011;21053;50.848;4.652;2022-07-25T02:36:01;11.27;;;5.53;;
34836;SDS011;21053;50.848;4.652;2022-07-25T02:40:56;11.85;;;5.57;;
34836;SDS011;21053;50.848;4.652;2022-07-25T02:43:22;9.45;;;5.00;;
34836;SDS011;21053;50.848;4.652;2022-07-25T02:45:48;14.30;;;5.70;;
34836;SDS011;21053;50.848;4.652;2022-07-25T02:48:17;13.82;;;4.82;;
34836;SDS011;21053;50.848;4.652;2022-07-25T02:50:48;8.02;;;4.78;;
34836;SDS011;21053;50.848;4.652;2022-07-25T02:53:16;9.50;;;5.13;;
34836;SDS011;21053;50.848;4.652;2022-07-25T02:55:42;10.35;;;5.05;;
34836;SDS011;21053;50.848;4.652;2022-07-25T02:58:08;7.53;;;5.05;;
34836;SDS011;21053;50.848;4.652;2022-07-25T03:03:03;9.52;;;5.18;;
34836;SDS011;21053;50.848;4.652;2022-07-25T03:05:30;15.10;;;4.90;;
34836;SDS011;21053;50.848;4.652;2022-07-25T03:07:57;13.07;;;4.90;;
34836;SDS011;21053;50.848;4.652;2022-07-25T03:10:26;12.77;;;5.18;;
34836;SDS011;21053;50.848;4.652;2022-07-25T03:12:53;7.45;;;4.50;;
34836;SDS011;21053;50.848;4.652;2022-07-25T03:15:22;9.50;;;4.38;;
34836;SDS011;21053;50.848;4.652;2022-07-25T03:17:49;15.13;;;5.53;;
34836;SDS011;21053;50.848;4.652;2022-07-25T03:20:18;10.52;;;5.07;;
34836;SDS011;21053;50.848;4.652;2022-07-25T03:22:46;8.18;;;4.57;;
34836;SDS011;21053;50.848;4.652;2022-07-25T03:25:12;9.80;;;5.32;;
34836;SDS011;21053;50.848;4.652;2022-07-25T03:27:37;7.40;;;5.13;;
34836;SDS011;21053;50.848;4.652;2022-07-25T03:30:04;11.63;;;5.20;;
34836;SDS011;21053;50.848;4.652;2022-07-25T03:32:31;8.52;;;5.03;;
34836;SDS011;21053;50.848;4.652;2022-07-25T03:34:56;13.70;;;4.80;;
34836;SDS011;21053;50.848;4.652;2022-07-25T03:37:25;10.63;;;4.40;;
34836;SDS011;21053;50.848;4.652;2022-07-25T03:39:51;7.63;;;5.15;;
34836;SDS011;21053;50.848;4.652;2022-07-25T03:44:48;11.55;;;4.95;;
34836;SDS011;21053;50.848;4.652;2022-07-25T03:47:15;9.90;;;4.97;;
34836;SDS011;21053;50.848;4.652;2022-07-25T03:49:44;14.85;;;5.10;;
34836;SDS011;21053;50.848;4.652;2022-07-25T03:52:11;8.45;;;4.85;;
34836;SDS011;21053;50.848;4.652;2022-07-25T03:54:39;8.73;;;5.22;;
34836;SDS011;21053;50.848;4.652;2022-07-25T03:59:38;8.32;;;5.00;;
34836;SDS011;21053;50.848;4.652;2022-07-25T04:02:04;10.20;;;5.20;;
34836;SDS011;21053;50.848;4.652;2022-07-25T04:04:32;8.60;;;4.60;;
34836;SDS011;21053;50.848;4.652;2022-07-25T04:07:01;9.18;;;5.07;;
34836;SDS011;21053;50.848;4.652;2022-07-25T04:09:30;9.95;;;4.78;;
34836;SDS011;21053;50.848;4.652;2022-07-25T04:11:57;8.05;;;4.40;;
34836;SDS011;21053;50.848;4.652;2022-07-25T04:14:24;7.32;;;4.72;;
34836;SDS011;21053;50.848;4.652;2022-07-25T04:16:53;10.27;;;4.68;;
34836;SDS011;21053;50.848;4.652;2022-07-25T04:19:21;9.05;;;4.30;;
34836;SDS011;21053;50.848;4.652;2022-07-25T04:21:50;10.55;;;4.93;;
34836;SDS011;21053;50.848;4.652;2022-07-25T04:24:19;8.57;;;4.65;;
34836;SDS011;21053;50.848;4.652;2022-07-25T04:26:45;7.35;;;5.03;;
34836;SDS011;21053;50.848;4.652;2022-07-25T04:31:41;13.10;;;4.68;;
34836;SDS011;21053;50.848;4.652;2022-07-25T04:34:12;10.15;;;4.93;;
34836;SDS011;21053;50.848;4.652;2022-07-25T04:36:39;11.73;;;4.82;;
34836;SDS011;21053;50.848;4.652;2022-07-25T04:39:07;13.95;;;5.47;;
34836;SDS011;21053;50.848;4.652;2022-07-25T04:41:34;11.13;;;4.82;;
34836;SDS011;21053;50.848;4.652;2022-07-25T04:43:59;9.65;;;4.80;;
34836;SDS011;21053;50.848;4.652;2022-07-25T04:46:25;13.35;;;4.53;;
34836;SDS011;21053;50.848;4.652;2022-07-25T04:48:53;8.80;;;4.50;;
34836;SDS011;21053;50.848;4.652;2022-07-25T04:51:19;11.40;;;4.78;;
34836;SDS011;21053;50.848;4.652;2022-07-25T04:56:16;12.23;;;4.65;;
34836;SDS011;21053;50.848;4.652;2022-07-25T04:58:43;10.45;;;5.20;;
34836;SDS011;21053;50.848;4.652;2022-07-25T05:01:15;13.45;;;5.25;;
34836;SDS011;21053;50.848;4.652;2022-07-25T05:03:44;9.25;;;4.72;;
34836;SDS011;21053;50.848;4.652;2022-07-25T05:08:39;10.27;;;5.10;;
34836;SDS011;21053;50.848;4.652;2022-07-25T05:11:05;15.00;;;5.20;;
34836;SDS011;21053;50.848;4.652;2022-07-25T05:13:34;8.30;;;4.93;;
34836;SDS011;21053;50.848;4.652;2022-07-25T05:18:29;11.07;;;4.82;;
34836;SDS011;21053;50.848;4.652;2022-07-25T05:20:55;9.55;;;4.88;;
34836;SDS011;21053;50.848;4.652;2022-07-25T05:23:24;7.68;;;4.75;;
34836;SDS011;21053;50.848;4.652;2022-07-25T05:28:19;8.45;;;5.25;;
34836;SDS011;21053;50.848;4.652;2022-07-25T05:30:46;7.97;;;4.05;;
34836;SDS011;21053;50.848;4.652;2022-07-25T05:33:13;5.00;;;3.72;;
34836;SDS011;21053;50.848;4.652;2022-07-25T05:35:38;7.57;;;3.80;;
34836;SDS011;21053;50.848;4.652;2022-07-25T05:38:05;8.75;;;4.15;;
34836;SDS011;21053;50.848;4.652;2022-07-25T05:40:31;5.55;;;3.13;;
34836;SDS011;21053;50.848;4.652;2022-07-25T05:43:00;6.20;;;4.00;;
34836;SDS011;21053;50.848;4.652;2022-07-25T05:45:27;6.18;;;4.32;;
34836;SDS011;21053;50.848;4.652;2022-07-25T05:47:56;5.43;;;3.70;;
34836;SDS011;21053;50.848;4.652;2022-07-25T05:50:24;6.45;;;2.90;;
34836;SDS011;21053;50.848;4.652;2022-07-25T05:52:51;5.88;;;2.78;;
34836;SDS011;21053;50.848;4.652;2022-07-25T05:55:17;8.00;;;3.30;;
34836;SDS011;21053;50.848;4.652;2022-07-25T05:57:43;4.53;;;2.47;;
34836;SDS011;21053;50.848;4.652;2022-07-25T06:00:10;5.35;;;2.40;;
34836;SDS011;21053;50.848;4.652;2022-07-25T06:02:36;6.50;;;2.20;;
34836;SDS011;21053;50.848;4.652;2022-07-25T06:05:05;5.20;;;2.28;;
34836;SDS011;21053;50.848;4.652;2022-07-25T06:07:31;3.13;;;1.65;;
34836;SDS011;21053;50.848;4.652;2022-07-25T06:10:03;7.82;;;2.10;;
34836;SDS011;21053;50.848;4.652;2022-07-25T06:12:30;8.63;;;2.42;;
34836;SDS011;21053;50.848;4.652;2022-07-25T06:14:57;13.82;;;2.42;;
34836;SDS011;21053;50.848;4.652;2022-07-25T06:17:24;10.55;;;2.70;;
34836;SDS011;21053;50.848;4.652;2022-07-25T06:19:51;7.80;;;2.67;;
34836;SDS011;21053;50.848;4.652;2022-07-25T06:22:16;6.50;;;2.13;;
34836;SDS011;21053;50.848;4.652;2022-07-25T06:24:46;4.15;;;2.20;;
34836;SDS011;21053;50.848;4.652;2022-07-25T06:27:15;8.93;;;2.47;;
34836;SDS011;21053;50.848;4.652;2022-07-25T06:32:12;6.57;;;2.53;;
34836;SDS011;21053;50.848;4.652;2022-07-25T06:34:40;6.90;;;2.50;;
34836;SDS011;21053;50.848;4.652;2022-07-25T06:37:07;9.90;;;2.30;;
34836;SDS011;21053;50.848;4.652;2022-07-25T06:42:02;8.10;;;2.60;;
34836;SDS011;21053;50.848;4.652;2022-07-25T06:46:59;7.22;;;2.22;;
34836;SDS011;21053;50.848;4.652;2022-07-25T06:49:27;8.38;;;2.20;;
34836;SDS011;21053;50.848;4.652;2022-07-25T06:51:54;9.65;;;2.28;;
34836;SDS011;21053;50.848;4.652;2022-07-25T06:54:22;5.13;;;2.13;;
34836;SDS011;21053;50.848;4.652;2022-07-25T06:56:48;4.50;;;2.10;;
34836;SDS011;21053;50.848;4.652;2022-07-25T06:59:14;10.50;;;2.25;;
34836;SDS011;21053;50.848;4.652;2022-07-25T07:01:41;8.75;;;1.70;;
34836;SDS011;21053;50.848;4.652;2022-07-25T07:06:36;10.45;;;2.20;;
34836;SDS011;21053;50.848;4.652;2022-07-25T07:14:03;11.90;;;1.80;;
34836;SDS011;21053;50.848;4.652;2022-07-25T07:16:30;7.45;;;1.75;;
34836;SDS011;21053;50.848;4.652;2022-07-25T07:18:56;3.25;;;1.48;;
34836;SDS011;21053;50.848;4.652;2022-07-25T07:21:24;10.15;;;1.80;;
34836;SDS011;21053;50.848;4.652;2022-07-25T07:23:50;6.63;;;2.03;;
34836;SDS011;21053;50.848;4.652;2022-07-25T07:26:16;4.25;;;1.63;;
34836;SDS011;21053;50.848;4.652;2022-07-25T07:31:11;3.97;;;1.50;;
34836;SDS011;21053;50.848;4.652;2022-07-25T07:33:39;3.10;;;1.30;;
34836;SDS011;21053;50.848;4.652;2022-07-25T07:36:04;11.65;;;1.42;;
34836;SDS011;21053;50.848;4.652;2022-07-25T07:38:32;2.70;;;1.48;;
34836;SDS011;21053;50.848;4.652;2022-07-25T07:41:01;1.67;;;1.23;;
34836;SDS011;21053;50.848;4.652;2022-07-25T07:43:29;6.68;;;1.63;;
34836;SDS011;21053;50.848;4.652;2022-07-25T07:45:58;4.45;;;1.30;;
34836;SDS011;21053;50.848;4.652;2022-07-25T07:48:28;4.30;;;1.60;;
34836;SDS011;21053;50.848;4.652;2022-07-25T07:50:56;5.72;;;1.45;;
34836;SDS011;21053;50.848;4.652;2022-07-25T07:53:24;7.63;;;1.30;;
34836;SDS011;21053;50.848;4.652;2022-07-25T07:56:11;3.92;;;1.30;;
34836;SDS011;21053;50.848;4.652;2022-07-25T07:58:39;5.03;;;1.55;;
34836;SDS011;21053;50.848;4.652;2022-07-25T08:01:08;1.70;;;1.10;;
34836;SDS011;21053;50.848;4.652;2022-07-25T08:06:08;3.03;;;1.20;;
34836;SDS011;21053;50.848;4.652;2022-07-25T08:08:33;9.20;;;1.40;;
34836;SDS011;21053;50.848;4.652;2022-07-25T08:10:59;2.92;;;1.10;;
34836;SDS011;21053;50.848;4.652;2022-07-25T08:13:29;4.15;;;1.40;;
34836;SDS011;21053;50.848;4.652;2022-07-25T08:15:58;7.20;;;1.40;;
34836;SDS011;21053;50.848;4.652;2022-07-25T08:18:26;3.20;;;1.70;;
34836;SDS011;21053;50.848;4.652;2022-07-25T08:21:00;4.95;;;1.60;;
34836;SDS011;21053;50.848;4.652;2022-07-25T08:23:31;7.20;;;2.00;;
34836;SDS011;21053;50.848;4.652;2022-07-25T08:25:59;6.68;;;1.48;;
34836;SDS011;21053;50.848;4.652;2022-07-25T08:30:55;3.65;;;1.23;;
34836;SDS011;21053;50.848;4.652;2022-07-25T08:33:24;4.30;;;1.70;;
34836;SDS011;21053;50.848;4.652;2022-07-25T08:35:51;7.13;;;1.30;;
34836;SDS011;21053;50.848;4.652;2022-07-25T08:38:24;3.72;;;1.30;;
34836;SDS011;21053;50.848;4.652;2022-07-25T08:40:53;5.40;;;1.42;;
34836;SDS011;21053;50.848;4.652;2022-07-25T08:43:19;5.25;;;1.48;;
34836;SDS011;21053;50.848;4.652;2022-07-25T08:45:48;3.38;;;1.23;;
34836;SDS011;21053;50.848;4.652;2022-07-25T08:48:16;5.95;;;1.55;;
34836;SDS011;21053;50.848;4.652;2022-07-25T08:50:47;2.67;;;1.20;;
34836;SDS011;21053;50.848;4.652;2022-07-25T08:53:17;6.35;;;1.65;;
34836;SDS011;21053;50.848;4.652;2022-07-25T08:55:47;2.90;;;1.30;;
34836;SDS011;21053;50.848;4.652;2022-07-25T08:58:14;6.75;;;1.70;;
34836;SDS011;21053;50.848;4.652;2022-07-25T09:00:44;3.65;;;1.50;;
34836;SDS011;21053;50.848;4.652;2022-07-25T09:03:13;3.60;;;1.60;;
34836;SDS011;21053;50.848;4.652;2022-07-25T09:08:15;2.80;;;1.67;;
34836;SDS011;21053;50.848;4.652;2022-07-25T09:10:59;5.07;;;1.50;;
34836;SDS011;21053;50.848;4.652;2022-07-25T09:13:26;2.17;;;1.40;;
34836;SDS011;21053;50.848;4.652;2022-07-25T09:15:53;4.43;;;1.55;;
34836;SDS011;21053;50.848;4.652;2022-07-25T09:18:25;4.13;;;1.58;;
34836;SDS011;21053;50.848;4.652;2022-07-25T09:20:59;3.85;;;1.60;;
34836;SDS011;21053;50.848;4.652;2022-07-25T09:23:35;5.95;;;1.73;;
34836;SDS011;21053;50.848;4.652;2022-07-25T09:26:09;6.13;;;1.83;;
34836;SDS011;21053;50.848;4.652;2022-07-25T09:28:41;4.53;;;1.40;;
34836;SDS011;21053;50.848;4.652;2022-07-25T09:31:11;1.50;;;1.27;;
34836;SDS011;21053;50.848;4.652;2022-07-25T09:33:52;6.13;;;1.52;;
34836;SDS011;21053;50.848;4.652;2022-07-25T09:36:24;6.13;;;1.65;;
34836;SDS011;21053;50.848;4.652;2022-07-25T09:38:57;3.53;;;1.77;;
34836;SDS011;21053;50.848;4.652;2022-07-25T09:41:39;2.67;;;1.15;;
34836;SDS011;21053;50.848;4.652;2022-07-25T09:44:16;2.95;;;1.30;;
34836;SDS011;21053;50.848;4.652;2022-07-25T09:46:44;4.85;;;1.58;;
34836;SDS011;21053;50.848;4.652;2022-07-25T09:51:40;3.45;;;1.33;;
34836;SDS011;21053;50.848;4.652;2022-07-25T09:54:08;4.85;;;1.35;;
34836;SDS011;21053;50.848;4.652;2022-07-25T09:56:37;1.88;;;1.10;;
34836;SDS011;21053;50.848;4.652;2022-07-25T09:59:10;4.45;;;1.33;;
34836;SDS011;21053;50.848;4.652;2022-07-25T10:01:37;3.13;;;1.10;;
34836;SDS011;21053;50.848;4.652;2022-07-25T10:09:41;5.28;;;1.30;;
34836;SDS011;21053;50.848;4.652;2022-07-25T10:12:10;5.20;;;1.45;;
34836;SDS011;21053;50.848;4.652;2022-07-25T10:14:37;3.03;;;1.40;;
34836;SDS011;21053;50.848;4.652;2022-07-25T10:17:03;3.08;;;1.60;;
34836;SDS011;21053;50.848;4.652;2022-07-25T10:19:46;4.75;;;1.40;;
34836;SDS011;21053;50.848;4.652;2022-07-25T10:22:13;4.05;;;1.40;;
34836;SDS011;21053;50.848;4.652;2022-07-25T10:24:43;3.13;;;1.80;;
34836;SDS011;21053;50.848;4.652;2022-07-25T10:27:22;3.72;;;1.70;;
34836;SDS011;21053;50.848;4.652;2022-07-25T10:29:49;7.90;;;2.47;;
34836;SDS011;21053;50.848;4.652;2022-07-25T10:32:18;4.25;;;1.45;;
34836;SDS011;21053;50.848;4.652;2022-07-25T10:34:54;6.50;;;1.70;;
34836;SDS011;21053;50.848;4.652;2022-07-25T10:37:25;9.82;;;1.40;;
34836;SDS011;21053;50.848;4.652;2022-07-25T10:39:53;4.47;;;1.40;;
34836;SDS011;21053;50.848;4.652;2022-07-25T10:42:22;4.38;;;1.70;;
34836;SDS011;21053;50.848;4.652;2022-07-25T10:44:52;4.70;;;1.80;;
34836;SDS011;21053;50.848;4.652;2022-07-25T10:47:25;1.92;;;1.45;;
34836;SDS011;21053;50.848;4.652;2022-07-25T10:49:55;5.38;;;1.52;;
34836;SDS011;21053;50.848;4.652;2022-07-25T10:52:26;7.57;;;1.65;;
34836;SDS011;21053;50.848;4.652;2022-07-25T10:54:56;10.68;;;1.65;;
34836;SDS011;21053;50.848;4.652;2022-07-25T10:57:24;7.00;;;2.40;;
34836;SDS011;21053;50.848;4.652;2022-07-25T10:59:51;7.97;;;2.03;;
34836;SDS011;21053;50.848;4.652;2022-07-25T11:02:22;6.00;;;2.38;;
34836;SDS011;21053;50.848;4.652;2022-07-25T11:04:58;17.33;;;4.30;;
34836;SDS011;21053;50.848;4.652;2022-07-25T11:07:30;8.07;;;3.28;;
34836;SDS011;21053;50.848;4.652;2022-07-25T11:10:03;5.70;;;1.80;;
34836;SDS011;21053;50.848;4.652;2022-07-25T11:12:31;9.00;;;1.73;;
34836;SDS011;21053;50.848;4.652;2022-07-25T11:15:01;4.60;;;2.00;;
34836;SDS011;21053;50.848;4.652;2022-07-25T11:17:34;4.43;;;1.90;;
34836;SDS011;21053;50.848;4.652;2022-07-25T11:20:10;6.25;;;2.10;;
34836;SDS011;21053;50.848;4.652;2022-07-25T11:22:50;13.10;;;2.03;;
34836;SDS011;21053;50.848;4.652;2022-07-25T11:27:58;5.50;;;2.00;;
34836;SDS011;21053;50.848;4.652;2022-07-25T11:30:26;5.40;;;1.80;;
34836;SDS011;21053;50.848;4.652;2022-07-25T11:32:58;8.43;;;2.10;;
34836;SDS011;21053;50.848;4.652;2022-07-25T11:37:58;9.77;;;1.88;;
34836;SDS011;21053;50.848;4.652;2022-07-25T11:40:26;7.10;;;2.05;;
34836;SDS011;21053;50.848;4.652;2022-07-25T11:45:30;6.47;;;1.60;;
34836;SDS011;21053;50.848;4.652;2022-07-25T11:48:08;3.78;;;1.70;;
34836;SDS011;21053;50.848;4.652;2022-07-25T11:53:04;5.95;;;1.80;;
34836;SDS011;21053;50.848;4.652;2022-07-25T11:55:34;12.35;;;2.65;;
34836;SDS011;21053;50.848;4.652;2022-07-25T11:58:11;7.88;;;1.73;;
34836;SDS011;21053;50.848;4.652;2022-07-25T12:03:15;4.43;;;1.50;;
34836;SDS011;21053;50.848;4.652;2022-07-25T12:05:47;6.25;;;1.83;;
34836;SDS011;21053;50.848;4.652;2022-07-25T12:08:20;6.60;;;1.98;;
34836;SDS011;21053;50.848;4.652;2022-07-25T12:13:28;10.10;;;2.53;;
34836;SDS011;21053;50.848;4.652;2022-07-25T12:15:55;4.88;;;1.90;;
34836;SDS011;21053;50.848;4.652;2022-07-25T12:18:21;8.23;;;2.22;;
34836;SDS011;21053;50.848;4.652;2022-07-25T12:20:50;4.65;;;1.70;;
34836;SDS011;21053;50.848;4.652;2022-07-25T12:23:20;6.68;;;1.70;;
34836;SDS011;21053;50.848;4.652;2022-07-25T12:25:54;8.80;;;1.92;;
34836;SDS011;21053;50.848;4.652;2022-07-25T12:28:23;7.35;;;2.00;;
34836;SDS011;21053;50.848;4.652;2022-07-25T12:30:48;8.65;;;2.00;;
34836;SDS011;21053;50.848;4.652;2022-07-25T12:33:17;6.40;;;1.98;;
34836;SDS011;21053;50.848;4.652;2022-07-25T12:35:44;12.63;;;2.15;;
34836;SDS011;21053;50.848;4.652;2022-07-25T12:38:10;8.10;;;2.13;;
34836;SDS011;21053;50.848;4.652;2022-07-25T12:40:36;7.18;;;2.20;;
34836;SDS011;21053;50.848;4.652;2022-07-25T12:43:02;5.47;;;2.22;;
34836;SDS011;21053;50.848;4.652;2022-07-25T12:45:30;6.00;;;1.60;;
34836;SDS011;21053;50.848;4.652;2022-07-25T12:47:56;6.60;;;2.22;;
34836;SDS011;21053;50.848;4.652;2022-07-25T12:50:22;9.07;;;1.95;;
34836;SDS011;21053;50.848;4.652;2022-07-25T12:52:50;6.07;;;1.80;;
34836;SDS011;21053;50.848;4.652;2022-07-25T12:55:17;9.32;;;2.40;;
34836;SDS011;21053;50.848;4.652;2022-07-25T12:57:45;7.25;;;1.90;;
34836;SDS011;21053;50.848;4.652;2022-07-25T13:00:12;6.97;;;2.10;;
34836;SDS011;21053;50.848;4.652;2022-07-25T13:02:41;5.30;;;1.98;;
34836;SDS011;21053;50.848;4.652;2022-07-25T13:05:07;11.38;;;1.90;;
34836;SDS011;21053;50.848;4.652;2022-07-25T13:07:34;8.95;;;1.95;;
34836;SDS011;21053;50.848;4.652;2022-07-25T13:10:02;8.10;;;1.83;;
34836;SDS011;21053;50.848;4.652;2022-07-25T13:12:32;5.30;;;1.80;;
34836;SDS011;21053;50.848;4.652;2022-07-25T13:15:00;9.90;;;1.98;;
34836;SDS011;21053;50.848;4.652;2022-07-25T13:17:28;9.85;;;2.30;;
34836;SDS011;21053;50.848;4.652;2022-07-25T13:19:57;9.70;;;2.50;;
34836;SDS011;21053;50.848;4.652;2022-07-25T13:22:24;2.63;;;1.45;;
34836;SDS011;21053;50.848;4.652;2022-07-25T13:24:53;11.30;;;1.90;;
34836;SDS011;21053;50.848;4.652;2022-07-25T13:27:20;4.72;;;1.90;;
34836;SDS011;21053;50.848;4.652;2022-07-25T13:29:50;8.77;;;2.10;;
34836;SDS011;21053;50.848;4.652;2022-07-25T13:32:20;7.82;;;2.00;;
34836;SDS011;21053;50.848;4.652;2022-07-25T13:34:49;13.20;;;2.30;;
34836;SDS011;21053;50.848;4.652;2022-07-25T13:37:17;8.77;;;2.28;;
34836;SDS011;21053;50.848;4.652;2022-07-25T13:39:43;7.78;;;1.90;;
34836;SDS011;21053;50.848;4.652;2022-07-25T13:42:10;6.07;;;1.83;;
34836;SDS011;21053;50.848;4.652;2022-07-25T13:47:06;9.68;;;1.90;;
34836;SDS011;21053;50.848;4.652;2022-07-25T13:49:32;10.52;;;2.00;;
34836;SDS011;21053;50.848;4.652;2022-07-25T13:51:57;11.60;;;1.75;;
34836;SDS011;21053;50.848;4.652;2022-07-25T13:54:23;8.18;;;2.08;;
34836;SDS011;21053;50.848;4.652;2022-07-25T13:59:17;12.13;;;2.10;;
34836;SDS011;21053;50.848;4.652;2022-07-25T14:04:14;8.48;;;1.63;;
34836;SDS011;21053;50.848;4.652;2022-07-25T14:06:40;8.30;;;1.98;;
34836;SDS011;21053;50.848;4.652;2022-07-25T14:09:06;13.15;;;1.83;;
34836;SDS011;21053;50.848;4.652;2022-07-25T14:11:34;7.55;;;2.22;;
34836;SDS011;21053;50.848;4.652;2022-07-25T14:14:01;5.95;;;1.80;;
34836;SDS011;21053;50.848;4.652;2022-07-25T14:16:27;8.23;;;2.08;;
34836;SDS011;21053;50.848;4.652;2022-07-25T14:18:53;5.15;;;1.80;;
34836;SDS011;21053;50.848;4.652;2022-07-25T14:21:19;4.38;;;1.52;;
34836;SDS011;21053;50.848;4.652;2022-07-25T14:23:45;6.00;;;1.90;;
34836;SDS011;21053;50.848;4.652;2022-07-25T14:26:11;9.50;;;1.65;;
34836;SDS011;21053;50.848;4.652;2022-07-25T14:28:38;3.72;;;1.40;;
34836;SDS011;21053;50.848;4.652;2022-07-25T14:31:04;6.75;;;1.65;;
34836;SDS011;21053;50.848;4.652;2022-07-25T14:33:30;9.07;;;1.50;;
34836;SDS011;21053;50.848;4.652;2022-07-25T14:35:56;6.28;;;1.88;;
34836;SDS011;21053;50.848;4.652;2022-07-25T14:38:23;12.90;;;1.33;;
34836;SDS011;21053;50.848;4.652;2022-07-25T14:40:48;6.15;;;1.50;;
34836;SDS011;21053;50.848;4.652;2022-07-25T14:43:14;7.47;;;1.40;;
34836;SDS011;21053;50.848;4.652;2022-07-25T14:45:42;12.73;;;2.03;;
34836;SDS011;21053;50.848;4.652;2022-07-25T14:48:08;5.65;;;1.30;;
34836;SDS011;21053;50.848;4.652;2022-07-25T14:50:34;7.03;;;1.20;;
34836;SDS011;21053;50.848;4.652;2022-07-25T14:53:00;7.40;;;1.70;;
34836;SDS011;21053;50.848;4.652;2022-07-25T14:55:32;9.48;;;1.40;;
34836;SDS011;21053;50.848;4.652;2022-07-25T14:58:01;9.20;;;1.60;;
34836;SDS011;21053;50.848;4.652;2022-07-25T15:00:29;4.72;;;1.80;;
34836;SDS011;21053;50.848;4.652;2022-07-25T15:02:55;9.30;;;1.75;;
34836;SDS011;21053;50.848;4.652;2022-07-25T15:05:24;3.63;;;1.10;;
34836;SDS011;21053;50.848;4.652;2022-07-25T15:07:51;4.03;;;1.30;;
34836;SDS011;21053;50.848;4.652;2022-07-25T15:10:24;11.25;;;1.73;;
34836;SDS011;21053;50.848;4.652;2022-07-25T15:15:21;4.00;;;1.50;;
34836;SDS011;21053;50.848;4.652;2022-07-25T15:17:48;2.53;;;1.10;;
34836;SDS011;21053;50.848;4.652;2022-07-25T15:20:16;6.50;;;1.40;;
34836;SDS011;21053;50.848;4.652;2022-07-25T15:22:43;10.65;;;1.50;;
34836;SDS011;21053;50.848;4.652;2022-07-25T15:25:12;4.13;;;1.63;;
34836;SDS011;21053;50.848;4.652;2022-07-25T15:27:40;6.03;;;1.20;;
34836;SDS011;21053;50.848;4.652;2022-07-25T15:32:36;6.00;;;1.00;;
34836;SDS011;21053;50.848;4.652;2022-07-25T15:35:04;9.60;;;1.70;;
34836;SDS011;21053;50.848;4.652;2022-07-25T15:37:32;5.13;;;1.13;;
34836;SDS011;21053;50.848;4.652;2022-07-25T15:42:30;9.88;;;1.27;;
34836;SDS011;21053;50.848;4.652;2022-07-25T15:44:59;16.50;;;1.52;;
34836;SDS011;21053;50.848;4.652;2022-07-25T15:47:26;9.65;;;1.20;;
34836;SDS011;21053;50.848;4.652;2022-07-25T15:49:54;11.68;;;1.52;;
34836;SDS011;21053;50.848;4.652;2022-07-25T15:52:23;2.17;;;0.90;;
34836;SDS011;21053;50.848;4.652;2022-07-25T15:54:50;10.73;;;1.13;;
34836;SDS011;21053;50.848;4.652;2022-07-25T15:57:17;4.80;;;0.85;;
34836;SDS011;21053;50.848;4.652;2022-07-25T15:59:44;7.03;;;1.05;;
34836;SDS011;21053;50.848;4.652;2022-07-25T16:02:10;5.65;;;1.23;;
34836;SDS011;21053;50.848;4.652;2022-07-25T16:04:40;4.40;;;0.95;;
34836;SDS011;21053;50.848;4.652;2022-07-25T16:07:17;5.30;;;1.60;;
34836;SDS011;21053;50.848;4.652;2022-07-25T16:09:44;6.10;;;1.52;;
34836;SDS011;21053;50.848;4.652;2022-07-25T16:12:09;12.77;;;2.35;;
34836;SDS011;21053;50.848;4.652;2022-07-25T16:14:35;3.03;;;1.23;;
34836;SDS011;21053;50.848;4.652;2022-07-25T16:17:05;4.97;;;1.10;;
34836;SDS011;21053;50.848;4.652;2022-07-25T16:19:32;6.22;;;1.00;;
34836;SDS011;21053;50.848;4.652;2022-07-25T16:21:58;3.65;;;0.90;;
34836;SDS011;21053;50.848;4.652;2022-07-25T16:24:27;6.45;;;0.90;;
34836;SDS011;21053;50.848;4.652;2022-07-25T16:26:55;3.40;;;0.80;;
34836;SDS011;21053;50.848;4.652;2022-07-25T16:29:20;4.72;;;0.80;;
34836;SDS011;21053;50.848;4.652;2022-07-25T16:31:47;2.75;;;0.90;;
34836;SDS011;21053;50.848;4.652;2022-07-25T16:34:14;3.22;;;0.82;;